createdAt,value
2022-08-10T00:00:47.219Z,154.23891
2022-08-10T00:05:53.084Z,154.23891
2022-08-10T00:10:54.445Z,154.23891
2022-08-10T00:15:55.755Z,154.23891
2022-08-10T00:20:57.063Z,154.23891
2022-08-10T00:25:57.964Z,154.23891
2022-08-10T00:30:58.933Z,153.52381
2022-08-10T00:35:59.893Z,153.52381
2022-08-10T00:41:00.824Z,153.52381
2022-08-10T00:46:01.904Z,153.52381
2022-08-10T00:51:02.835Z,153.52381
2022-08-10T00:57:07.913Z,153.52381
2022-08-10T01:02:18.308Z,152.81356
2022-08-10T01:07:19.304Z,152.81356
2022-08-10T01:12:37.772Z,152.81356
2022-08-10T01:17:49.774Z,152.81356
2022-08-10T01:22:52.073Z,153.52381
2022-08-10T01:27:52.991Z,153.52381
2022-08-10T01:32:53.950Z,153.52381
2022-08-10T01:37:54.904Z,154.23891
2022-08-10T01:42:55.861Z,154.23891
2022-08-10T01:48:00.734Z,154.9589
2022-08-10T01:53:01.792Z,154.9589
2022-08-10T01:58:02.738Z,154.9589
2022-08-10T02:03:03.670Z,154.9589
2022-08-10T02:08:04.900Z,154.9589
2022-08-10T02:13:05.880Z,154.9589
2022-08-10T02:18:06.836Z,154.9589
2022-08-10T02:23:07.751Z,154.9589
2022-08-10T02:28:08.747Z,154.9589
2022-08-10T02:33:09.689Z,154.9589
2022-08-10T02:38:12.258Z,154.9589
2022-08-10T02:45:23.629Z,154.9589
2022-08-10T02:50:29.830Z,154.23891
2022-08-10T02:55:32.448Z,154.23891
2022-08-10T03:00:33.684Z,154.23891
2022-08-10T03:05:34.624Z,154.23891
2022-08-10T03:10:38.085Z,154.9589
2022-08-10T03:15:40.562Z,154.9589
2022-08-10T03:20:41.547Z,154.9589
2022-08-10T03:25:53.197Z,154.9589
2022-08-10T03:30:54.942Z,154.9589
2022-08-10T03:36:40.447Z,154.23891
2022-08-10T03:41:47.654Z,154.23891
2022-08-10T03:46:55.080Z,154.23891
2022-08-10T03:51:56.137Z,154.23891
2022-08-10T03:56:57.649Z,154.23891
2022-08-10T04:02:45.387Z,154.9589
2022-08-10T04:07:49.139Z,154.9589
2022-08-10T04:12:50.138Z,154.9589
2022-08-10T04:17:56.947Z,154.9589
2022-08-10T04:23:06.356Z,154.9589
2022-08-10T04:28:07.264Z,154.23891
2022-08-10T04:33:08.244Z,154.23891
2022-08-10T04:38:09.204Z,153.52381
2022-08-10T04:43:13.194Z,154.23891
2022-08-10T04:48:40.956Z,154.23891
2022-08-10T04:54:05.111Z,153.52381
2022-08-10T04:59:07.212Z,153.52381
2022-08-10T05:04:38.497Z,153.52381
2022-08-10T05:10:01.474Z,153.52381
2022-08-10T05:15:06.083Z,153.52381
2022-08-10T05:20:07.817Z,153.52381
2022-08-10T05:25:09.089Z,152.81356
2022-08-10T05:30:09.999Z,152.81356
2022-08-10T05:35:10.944Z,152.81356
2022-08-10T05:40:11.888Z,152.10811
2022-08-10T05:45:12.787Z,152.10811
2022-08-10T05:50:13.736Z,152.10811
2022-08-10T05:55:14.666Z,152.81356
2022-08-10T06:00:37.322Z,150.71141
2022-08-10T06:05:39.994Z,149.33333
2022-08-10T06:11:07.705Z,149.33333
2022-08-10T06:17:26.848Z,149.33333
2022-08-10T06:22:27.755Z,149.33333
2022-08-10T06:27:34.271Z,148.65116
2022-08-10T06:32:36.207Z,148.65116
2022-08-10T06:37:37.629Z,148.65116
2022-08-10T06:42:38.560Z,147.97351
2022-08-10T06:47:39.464Z,146.63158
2022-08-10T06:52:40.393Z,146.63158
2022-08-10T06:57:41.309Z,146.63158
2022-08-10T07:02:42.212Z,145.96721
2022-08-10T07:07:43.129Z,144.65147
2022-08-10T07:12:44.103Z,145.30719
2022-08-10T07:17:45.053Z,144.65147
2022-08-10T07:23:01.437Z,144.0
2022-08-10T07:28:58.006Z,143.35275
2022-08-10T07:33:58.949Z,140.17834
2022-08-10T07:38:59.910Z,141.4359
2022-08-10T07:44:00.846Z,142.07074
2022-08-10T07:49:01.755Z,142.07074
2022-08-10T07:54:16.218Z,141.4359
2022-08-10T07:59:17.151Z,142.07074
2022-08-10T08:04:18.048Z,142.07074
2022-08-10T08:09:19.000Z,140.80511
2022-08-10T08:14:20.018Z,142.07074
2022-08-10T08:19:28.216Z,141.4359
2022-08-10T08:24:37.770Z,141.4359
2022-08-10T08:29:39.059Z,141.4359
2022-08-10T08:34:40.094Z,140.80511
2022-08-10T08:39:41.133Z,140.17834
2022-08-10T08:44:45.170Z,140.17834
2022-08-10T08:50:08.319Z,135.90031
2022-08-10T08:56:00.753Z,137.10345
2022-08-10T09:01:08.665Z,135.30435
2022-08-10T09:06:09.577Z,134.71207
2022-08-10T09:11:10.498Z,135.30435
2022-08-10T09:16:11.483Z,137.10345
2022-08-10T09:21:12.452Z,139.55556
2022-08-10T09:26:13.357Z,137.71069
2022-08-10T09:31:23.138Z,137.10345
2022-08-10T09:36:33.127Z,137.71069
2022-08-10T09:41:34.594Z,135.90031
2022-08-10T09:46:35.911Z,138.93671
2022-08-10T09:51:46.448Z,136.5
2022-08-10T09:56:47.960Z,137.71069
2022-08-10T10:02:03.835Z,137.10345
2022-08-10T10:07:05.460Z,137.71069
2022-08-10T10:12:09.819Z,137.10345
2022-08-10T10:17:11.236Z,137.10345
2022-08-10T10:22:12.145Z,138.32177
2022-08-10T10:27:16.016Z,138.93671
2022-08-10T10:32:17.602Z,137.10345
2022-08-10T10:37:18.505Z,135.90031
2022-08-10T10:42:42.376Z,139.55556
2022-08-10T10:47:45.566Z,138.93671
2022-08-10T10:52:46.498Z,137.10345
2022-08-10T10:57:58.857Z,140.80511
2022-08-10T11:03:01.841Z,138.93671
2022-08-10T11:08:02.771Z,138.32177
2022-08-10T11:14:23.545Z,137.71069
2022-08-10T11:20:01.253Z,144.65147
2022-08-10T11:25:04.834Z,139.55556
2022-08-10T11:30:05.744Z,138.32177
2022-08-10T11:35:10.198Z,142.07074
2022-08-10T11:40:13.047Z,139.55556
2022-08-10T11:45:14.004Z,141.4359
2022-08-10T11:50:14.909Z,146.63158
2022-08-10T11:55:15.866Z,148.65116
2022-08-10T12:00:17.390Z,145.96721
2022-08-10T12:05:18.320Z,147.30033
2022-08-10T12:10:19.370Z,142.70968
2022-08-10T12:15:20.300Z,144.0
2022-08-10T12:20:21.207Z,140.17834
2022-08-10T12:25:57.831Z,144.65147
2022-08-10T12:30:59.521Z,140.17834
2022-08-10T12:36:17.976Z,135.90031
2022-08-10T12:41:43.613Z,142.70968
2022-08-10T12:46:46.242Z,140.80511
2022-08-10T12:51:49.568Z,136.5
2022-08-10T12:56:50.856Z,130.10272
2022-08-10T13:02:06.681Z,127.33333
2022-08-10T13:08:24.608Z,125.17647
2022-08-10T13:13:28.504Z,137.71069
2022-08-10T13:18:29.499Z,132.3792
2022-08-10T13:23:30.414Z,130.10272
2022-08-10T13:28:35.606Z,125.71091
2022-08-10T13:34:41.575Z,123.59184
2022-08-10T13:39:58.194Z,126.24852
2022-08-10T13:45:01.703Z,123.06977
2022-08-10T13:50:02.620Z,123.59184
2022-08-10T13:55:03.618Z,124.11696
2022-08-10T14:00:36.761Z,127.33333
2022-08-10T14:05:39.173Z,121.52161
2022-08-10T14:11:08.363Z,123.59184
2022-08-10T14:16:12.389Z,123.59184
2022-08-10T14:21:13.314Z,120.0
2022-08-10T14:26:16.129Z,127.8806
2022-08-10T14:31:21.602Z,122.55072
2022-08-10T14:36:24.468Z,125.71091
2022-08-10T14:42:03.792Z,126.78932
2022-08-10T14:47:08.590Z,124.11696
2022-08-10T14:52:55.306Z,123.59184
2022-08-10T14:58:17.303Z,121.01149
2022-08-10T15:04:01.340Z,121.52161
2022-08-10T15:09:03.686Z,123.06977
2022-08-10T15:20:01.114Z,122.03468
2022-08-10T15:25:05.776Z,127.8806
2022-08-10T15:30:18.610Z,128.98498
2022-08-10T15:35:19.531Z,130.10272
2022-08-10T15:40:32.337Z,128.43114
2022-08-10T15:45:35.559Z,125.17647
2022-08-10T15:50:40.095Z,125.17647
2022-08-10T15:55:45.316Z,125.71091
2022-08-10T16:00:46.886Z,123.59184
2022-08-10T16:06:01.069Z,125.17647
2022-08-10T16:11:04.091Z,126.24852
2022-08-10T16:16:05.013Z,126.24852
2022-08-10T16:21:05.924Z,125.71091
2022-08-10T16:26:15.197Z,125.71091
2022-08-10T16:31:18.356Z,126.24852
2022-08-10T16:36:19.288Z,128.98498
2022-08-10T16:42:02.970Z,128.98498
2022-08-10T16:47:06.429Z,128.98498
2022-08-10T16:52:07.415Z,128.98498
2022-08-10T16:57:08.330Z,128.98498
2022-08-10T17:02:09.335Z,129.54217
2022-08-10T17:07:10.440Z,129.54217
2022-08-10T17:12:11.372Z,130.66667
2022-08-10T17:17:12.313Z,131.23404
2022-08-10T17:22:13.236Z,131.80488
2022-08-10T17:28:05.341Z,132.3792
2022-08-10T17:33:36.597Z,133.53846
2022-08-10T17:38:37.911Z,133.53846
2022-08-10T17:43:58.572Z,134.12346
2022-08-10T17:49:03.969Z,134.12346
2022-08-10T17:54:05.028Z,135.30435
2022-08-10T17:59:11.511Z,134.71207
2022-08-10T18:04:18.070Z,134.71207
2022-08-10T18:09:19.005Z,135.90031
2022-08-10T18:14:19.922Z,135.30435
2022-08-10T18:24:21.396Z,136.5
2022-08-10T18:29:22.401Z,137.71069
2022-08-10T18:34:23.353Z,137.71069
2022-08-10T18:39:24.322Z,138.32177
2022-08-10T18:44:25.255Z,138.93671
2022-08-10T18:49:26.174Z,140.17834
2022-08-10T18:54:39.862Z,140.17834
2022-08-10T19:00:07.974Z,141.4359
2022-08-10T19:05:30.229Z,141.4359
2022-08-10T19:10:33.105Z,141.4359
2022-08-10T19:15:34.132Z,141.4359
2022-08-10T19:20:37.042Z,141.4359
2022-08-10T19:26:32.912Z,142.70968
2022-08-10T19:31:45.650Z,142.07074
2022-08-10T19:36:46.601Z,142.70968
2022-08-10T19:41:47.500Z,143.35275
2022-08-10T19:46:55.317Z,143.35275
2022-08-10T19:51:56.278Z,143.35275
2022-08-10T19:56:57.240Z,143.35275
2022-08-10T20:01:58.879Z,144.0
2022-08-10T20:06:59.821Z,144.0
2022-08-10T20:12:00.794Z,144.65147
2022-08-10T20:17:02.137Z,144.65147
2022-08-10T20:22:03.063Z,145.30719
2022-08-10T20:27:18.329Z,145.96721
2022-08-10T20:32:59.169Z,146.63158
2022-08-10T20:38:03.466Z,146.63158
2022-08-10T20:43:05.591Z,147.30033
2022-08-10T20:48:06.500Z,147.30033
2022-08-10T20:53:07.413Z,147.97351
2022-08-10T20:58:10.684Z,148.65116
2022-08-10T21:03:20.957Z,147.97351
2022-08-10T21:08:23.260Z,148.65116
2022-08-10T21:13:24.222Z,147.97351
2022-08-10T21:18:25.323Z,148.65116
2022-08-10T21:23:30.534Z,147.97351
2022-08-10T21:28:31.843Z,147.97351
2022-08-10T21:33:32.771Z,147.97351
2022-08-10T21:38:33.676Z,147.97351
2022-08-10T21:43:44.717Z,147.97351
2022-08-10T21:48:46.939Z,147.97351
2022-08-10T21:53:58.849Z,147.97351
2022-08-10T21:58:59.831Z,148.65116
2022-08-10T22:04:00.758Z,148.65116
2022-08-10T22:09:01.762Z,148.65116
2022-08-10T22:14:02.654Z,148.65116
2022-08-10T22:19:13.478Z,148.65116
2022-08-10T22:24:16.884Z,148.65116
2022-08-10T22:29:20.060Z,148.65116
2022-08-10T22:34:20.974Z,149.33333
2022-08-10T22:40:11.314Z,149.33333
2022-08-10T22:45:14.291Z,149.33333
2022-08-10T22:50:20.168Z,149.33333
2022-08-10T22:55:21.068Z,150.02007
2022-08-10T23:00:31.395Z,150.02007
2022-08-10T23:05:32.792Z,150.02007
2022-08-10T23:10:33.691Z,150.02007
2022-08-10T23:15:34.596Z,150.02007
2022-08-10T23:20:35.507Z,150.02007
2022-08-10T23:25:36.426Z,150.71141
2022-08-10T23:30:45.196Z,150.71141
2022-08-10T23:36:31.733Z,150.71141
2022-08-10T23:41:35.907Z,150.71141
2022-08-10T23:46:36.923Z,151.40741
2022-08-10T23:51:38.893Z,151.40741
2022-08-10T23:56:55.958Z,151.40741
